Ji'An, China
Current Conditions -  °F | °C
As of 8:00 PM on Tuesday 21 Oct 2014 (Local Time) from ZGHA Reporting Station
Haze Haze  
Wind Chill: 66°   Ceiling: Unl
Heat Index: 66°   Visibility: 3mi
Dew Point: 57°   Wind: 13mph
Humidity: 73%   Direction: 330°NNW
Pressure: 30.18"   Gusts: NA
Location:  27.12°N, 114.97°E
Report Text: ZGHA 211200Z 33006MPS 5000 BR NSC 19/14 Q1022 NOSIG
Loading
Personal Weather Stations






























Interactive Weather Map
Tropical Storm Tracking
New forecast layout! Learn more

10-Day Weather Forecast

Advertisements
Track Severe Weather on mobile